createdAt,value
2022-11-01T00:00:46.644Z,57.9
2022-11-01T00:01:48.061Z,57.8
2022-11-01T00:02:49.239Z,58.2
2022-11-01T00:03:51.199Z,58.6
2022-11-01T00:04:53.000Z,58.7
2022-11-01T00:05:54.043Z,58.9
2022-11-01T00:06:55.007Z,58.8
2022-11-01T00:07:56.298Z,58.7
2022-11-01T00:08:58.019Z,58.7
2022-11-01T00:09:59.218Z,58.1
2022-11-01T00:11:01.618Z,58.7
2022-11-01T00:12:03.218Z,59
2022-11-01T00:13:05.181Z,59.2
2022-11-01T00:14:06.059Z,58.4
2022-11-01T00:15:07.039Z,58.6
2022-11-01T00:16:08.107Z,58.7
2022-11-01T00:17:09.978Z,58.7
2022-11-01T00:18:10.999Z,58.8
2022-11-01T00:19:12.018Z,58.8
2022-11-01T00:20:13.042Z,58.5
2022-11-01T00:21:14.418Z,58.6
2022-11-01T00:22:16.265Z,58.6
2022-11-01T00:23:18.160Z,58.6
2022-11-01T00:24:20.580Z,58.5
2022-11-01T00:25:22.049Z,58.4
2022-11-01T00:26:23.080Z,58.5
2022-11-01T00:27:24.038Z,58.7
2022-11-01T00:28:25.883Z,58.7
2022-11-01T00:29:27.238Z,58.6
2022-11-01T00:30:29.098Z,58.7
2022-11-01T00:31:32.079Z,58.4
2022-11-01T00:32:32.939Z,58.7
2022-11-01T00:33:34.018Z,58.8
2022-11-01T00:34:34.959Z,58.9
2022-11-01T00:35:36.318Z,59.1
2022-11-01T00:36:38.378Z,59.2
2022-11-01T00:37:40.378Z,59.1
2022-11-01T00:38:42.404Z,59.4
2022-11-01T00:39:44.021Z,59.6
2022-11-01T00:40:45.239Z,59.6
2022-11-01T00:41:47.138Z,59.4
2022-11-01T00:42:49.321Z,59.2
2022-11-01T00:43:51.243Z,58.8
2022-11-01T00:44:53.238Z,58.4
2022-11-01T00:45:55.020Z,57.7
2022-11-01T00:46:56.062Z,58
2022-11-01T00:47:57.079Z,57.8
2022-11-01T00:48:58.127Z,57.8
2022-11-01T00:50:00.658Z,57.8
2022-11-01T00:51:02.138Z,57.9
2022-11-01T00:52:04.247Z,57.8
2022-11-01T00:53:06.318Z,57.6
2022-11-01T00:54:08.571Z,57.7
2022-11-01T00:55:10.059Z,57.6
2022-11-01T00:56:11.046Z,57.6
2022-11-01T00:57:12.239Z,57.4
2022-11-01T00:58:14.500Z,57.3
2022-11-01T00:59:16.240Z,57.5
2022-11-01T01:00:18.106Z,57.7
2022-11-01T01:01:19.228Z,57.7
2022-11-01T01:02:20.247Z,57.9
2022-11-01T01:03:22.067Z,58.1
2022-11-01T01:04:23.192Z,58.2
2022-11-01T01:05:25.460Z,58.3
2022-11-01T01:06:27.218Z,58.4
2022-11-01T01:07:29.018Z,58.4
2022-11-01T01:08:30.077Z,58.5
2022-11-01T01:09:31.021Z,58.5
2022-11-01T01:10:32.021Z,58.6
2022-11-01T01:11:33.025Z,58.7
2022-11-01T01:12:34.019Z,58.8
2022-11-01T01:13:35.218Z,58.9
2022-11-01T01:14:37.063Z,59.3
2022-11-01T01:15:38.082Z,59.6
2022-11-01T01:16:39.214Z,59.6
2022-11-01T01:17:41.778Z,59.6
2022-11-01T01:18:43.340Z,59
2022-11-01T01:19:45.197Z,58.8
2022-11-01T01:20:47.239Z,59.4
2022-11-01T01:21:49.079Z,59
2022-11-01T01:22:50.125Z,58.6
2022-11-01T01:23:51.040Z,58.2
2022-11-01T01:24:52.060Z,57.9
2022-11-01T01:25:53.088Z,57.4
2022-11-01T01:26:54.099Z,57.4
2022-11-01T01:27:55.060Z,57.4
2022-11-01T01:28:56.179Z,57.6
2022-11-01T01:29:58.207Z,57.9
2022-11-01T01:31:00.238Z,58
2022-11-01T01:32:02.979Z,58.1
2022-11-01T01:33:04.620Z,58.2
2022-11-01T01:34:06.120Z,58.3
2022-11-01T01:35:07.078Z,58.4
2022-11-01T01:36:08.099Z,58.5
2022-11-01T01:37:09.921Z,58.2
2022-11-01T01:38:11.340Z,58.6
2022-11-01T01:39:13.099Z,58.8
2022-11-01T01:40:14.098Z,58.7
2022-11-01T01:41:15.038Z,58.3
2022-11-01T01:42:16.120Z,58.5
2022-11-01T01:43:17.168Z,58.6
2022-11-01T01:44:19.099Z,58.6
2022-11-01T01:45:20.082Z,58.8
2022-11-01T01:46:21.058Z,58.9
2022-11-01T01:47:22.068Z,58.6
2022-11-01T01:48:23.017Z,58.8
2022-11-01T01:49:24.098Z,59
2022-11-01T01:50:25.598Z,58.9
2022-11-01T01:51:27.638Z,59.2
2022-11-01T01:52:29.758Z,59.3
2022-11-01T01:53:31.746Z,59.4
2022-11-01T01:54:33.203Z,59.3
2022-11-01T01:55:35.078Z,59.4
2022-11-01T01:56:36.079Z,59.3
2022-11-01T01:57:37.039Z,59.3
2022-11-01T01:58:38.385Z,59.3
2022-11-01T01:59:40.099Z,59.3
2022-11-01T02:03:58.209Z,59.1
2022-11-01T02:05:00.226Z,59
2022-11-01T02:06:02.132Z,58.7
2022-11-01T02:07:03.452Z,59.1
2022-11-01T02:08:05.512Z,59.1
2022-11-01T02:09:07.052Z,59.1
2022-11-01T02:10:08.212Z,59.1
2022-11-01T02:11:10.232Z,59.1
2022-11-01T02:12:12.192Z,58.9
2022-11-01T02:13:14.732Z,58.4
2022-11-01T02:14:16.170Z,58.4
2022-11-01T02:15:18.293Z,58.5
2022-11-01T02:16:20.494Z,58.7
2022-11-01T02:17:22.492Z,58.7
2022-11-01T02:18:24.672Z,59.1
2022-11-01T02:19:26.316Z,58.9
2022-11-01T02:20:28.232Z,58.4
2022-11-01T02:21:30.297Z,58.8
2022-11-01T02:22:32.264Z,58.8
2022-11-01T02:23:34.230Z,58.7
2022-11-01T02:24:36.453Z,58.8
2022-11-01T02:25:38.861Z,59.1
2022-11-01T02:26:40.380Z,59.2
2022-11-01T02:27:42.225Z,59.5
2022-11-01T02:28:44.209Z,59.5
2022-11-01T02:29:46.252Z,59.5
2022-11-01T02:30:48.372Z,59.3
2022-11-01T02:31:50.173Z,59.3
2022-11-01T02:32:51.113Z,58.9
2022-11-01T02:33:52.113Z,58.6
2022-11-01T02:34:53.197Z,58.7
2022-11-01T02:35:54.120Z,59
2022-11-01T02:36:55.153Z,59
2022-11-01T02:37:56.145Z,59.2
2022-11-01T02:38:57.476Z,59.3
2022-11-01T02:39:59.410Z,59.4
2022-11-01T02:41:01.233Z,59.2
2022-11-01T02:42:03.139Z,58.7
2022-11-01T02:43:04.396Z,58.4
2022-11-01T02:44:05.093Z,58.4
2022-11-01T02:45:06.153Z,58.3
2022-11-01T02:46:07.552Z,58.2
2022-11-01T02:47:09.414Z,58.1
2022-11-01T02:48:11.519Z,58.2
2022-11-01T02:49:13.180Z,58.2
2022-11-01T02:50:14.234Z,58.2
2022-11-01T02:51:16.312Z,58.2
2022-11-01T02:52:18.173Z,58.1
2022-11-01T02:53:19.012Z,58.1
2022-11-01T02:54:20.092Z,58.2
2022-11-01T02:55:21.781Z,58.2
2022-11-01T02:56:23.195Z,58
2022-11-01T02:57:25.612Z,57.9
2022-11-01T02:58:27.093Z,58.4
2022-11-01T02:59:28.160Z,58.5
2022-11-01T03:00:29.438Z,58.3
2022-11-01T03:01:31.423Z,58.3
2022-11-01T03:02:33.551Z,58.1
2022-11-01T03:03:35.277Z,58.1
2022-11-01T03:04:37.500Z,58.3
2022-11-01T03:05:39.437Z,58.1
2022-11-01T03:06:41.152Z,57.9
2022-11-01T03:07:42.295Z,57.7
2022-11-01T03:08:44.141Z,57.8
2022-11-01T03:09:45.256Z,58
2022-11-01T03:10:47.411Z,58
2022-11-01T03:11:49.333Z,58.1
2022-11-01T03:12:51.316Z,58.1
2022-11-01T03:13:53.398Z,58.5
2022-11-01T03:14:55.453Z,58.8
2022-11-01T03:15:57.322Z,58.7
2022-11-01T03:16:59.344Z,58.9
2022-11-01T03:18:01.313Z,59
2022-11-01T03:19:03.332Z,59
2022-11-01T03:20:05.282Z,59
2022-11-01T03:21:07.356Z,58.8
2022-11-01T03:22:09.306Z,58.7
2022-11-01T03:23:11.132Z,58.5
2022-11-01T03:24:12.174Z,58.5
2022-11-01T03:25:13.371Z,58.4
2022-11-01T03:26:15.112Z,58.4
2022-11-01T03:27:16.093Z,58.7
2022-11-01T03:28:17.932Z,58.8
2022-11-01T03:29:19.632Z,58.4
2022-11-01T03:30:21.393Z,58.3
2022-11-01T03:31:23.332Z,58.1
2022-11-01T03:32:25.693Z,58
2022-11-01T03:33:27.172Z,58.3
2022-11-01T03:34:28.132Z,58.3
2022-11-01T03:35:29.212Z,58.3
2022-11-01T03:36:31.416Z,58
2022-11-01T03:37:33.292Z,58.2
2022-11-01T03:38:35.133Z,58.1
2022-11-01T03:39:36.113Z,58.2
2022-11-01T03:40:37.152Z,58.2
2022-11-01T03:41:38.132Z,58.2
2022-11-01T03:42:40.003Z,58.2
2022-11-01T03:43:41.293Z,58.5
2022-11-01T03:44:43.425Z,58.6
2022-11-01T03:45:45.295Z,58.6
2022-11-01T03:46:47.152Z,58.7
2022-11-01T03:47:48.113Z,58.8
2022-11-01T03:48:49.113Z,58.8
2022-11-01T03:49:50.136Z,59
2022-11-01T03:50:51.113Z,58.9
2022-11-01T03:51:52.156Z,59
2022-11-01T03:52:53.153Z,59
2022-11-01T03:53:54.886Z,59
2022-11-01T03:54:56.273Z,58.9
2022-11-01T03:55:58.140Z,59
2022-11-01T03:56:59.173Z,58.6
2022-11-01T03:58:00.532Z,58.9
2022-11-01T03:59:02.692Z,59.1
2022-11-01T04:00:04.254Z,59.1
2022-11-01T04:01:06.203Z,59
2022-11-01T04:02:07.367Z,59.4
2022-11-01T04:03:09.423Z,59.5
2022-11-01T04:04:11.174Z,59.5
2022-11-01T04:05:12.416Z,59.6
2022-11-01T04:06:14.190Z,60.2
2022-11-01T04:07:15.197Z,60.6
2022-11-01T04:08:16.113Z,60.8
2022-11-01T04:09:17.158Z,61
2022-11-01T04:10:18.152Z,61
2022-11-01T04:11:19.139Z,60.8
2022-11-01T04:12:20.314Z,60.9
2022-11-01T04:13:22.491Z,60.8
2022-11-01T04:14:24.233Z,60.7
2022-11-01T04:15:26.114Z,60.6
2022-11-01T04:16:27.193Z,60.4
2022-11-01T04:17:28.232Z,60.1
2022-11-01T04:18:30.201Z,59.6
2022-11-01T04:19:31.192Z,60
2022-11-01T04:20:32.292Z,60.1
2022-11-01T04:21:34.652Z,60.1
2022-11-01T04:22:36.345Z,60.2
2022-11-01T04:23:38.132Z,60.3
2022-11-01T04:24:39.260Z,60.1
2022-11-01T04:25:41.200Z,60.1
2022-11-01T04:26:42.296Z,60.2
2022-11-01T04:27:44.345Z,60.3
2022-11-01T04:28:46.352Z,60.1
2022-11-01T04:29:48.233Z,60.1
2022-11-01T04:30:50.379Z,60.6
2022-11-01T04:31:52.528Z,60.8
2022-11-01T04:32:54.773Z,60.7
2022-11-01T04:33:56.193Z,60.4
2022-11-01T04:34:57.371Z,60
2022-11-01T04:35:59.252Z,60.1
2022-11-01T04:37:01.361Z,60.1
2022-11-01T04:38:03.581Z,60.4
2022-11-01T04:39:05.212Z,60.2
2022-11-01T04:40:06.196Z,59.7
2022-11-01T04:41:07.245Z,59.6
2022-11-01T04:42:09.241Z,59.4
2022-11-01T04:43:10.234Z,59.1
2022-11-01T04:44:11.412Z,59
2022-11-01T04:45:13.240Z,59
2022-11-01T04:46:15.214Z,58.9
2022-11-01T04:47:17.432Z,58.9
2022-11-01T04:48:19.672Z,59
2022-11-01T04:49:21.212Z,59.1
2022-11-01T04:50:22.193Z,58.5
2022-11-01T04:51:23.433Z,58.9
2022-11-01T04:52:25.513Z,59.1
2022-11-01T04:53:27.423Z,59.3
2022-11-01T04:54:29.360Z,59.3
2022-11-01T04:55:31.452Z,59.3
2022-11-01T04:56:33.366Z,59.4
2022-11-01T04:57:35.322Z,59.6
2022-11-01T04:58:41.399Z,59.6
2022-11-01T04:59:39.162Z,59.9
2022-11-01T05:00:40.384Z,60.1
2022-11-01T05:01:42.878Z,60.4
2022-11-01T05:02:44.243Z,60.4
2022-11-01T05:03:45.412Z,60.4
2022-11-01T05:04:47.373Z,60.6
2022-11-01T05:05:49.273Z,60.7
2022-11-01T05:06:51.753Z,60.8
2022-11-01T05:07:53.460Z,60.8
2022-11-01T05:08:55.637Z,60.9
2022-11-01T05:09:57.401Z,61.2
2022-11-01T05:10:59.414Z,61.7
2022-11-01T05:12:01.432Z,61.9
2022-11-01T05:13:03.688Z,62.1
2022-11-01T05:14:05.192Z,62.3
2022-11-01T05:15:06.193Z,62.4
2022-11-01T05:16:19.174Z,62.2
2022-11-01T05:17:09.361Z,62
2022-11-01T05:18:11.213Z,62.1
2022-11-01T05:19:12.252Z,62.2
2022-11-01T05:20:13.517Z,62.3
2022-11-01T05:21:15.392Z,62.3
2022-11-01T05:22:17.693Z,62
2022-11-01T05:23:19.754Z,62.5
2022-11-01T05:24:21.759Z,62.5
2022-11-01T05:25:23.156Z,62.3
2022-11-01T05:26:24.332Z,62.2
2022-11-01T05:27:26.953Z,61.5
2022-11-01T05:28:28.633Z,61.7
2022-11-01T05:29:33.110Z,61.7
2022-11-01T05:30:32.175Z,61.6
2022-11-01T05:31:33.232Z,61.6
2022-11-01T05:32:34.152Z,61.5
2022-11-01T05:33:35.257Z,61.1
2022-11-01T05:34:37.673Z,60.8
2022-11-01T05:35:39.692Z,60.7
2022-11-01T05:36:41.561Z,60.6
2022-11-01T05:37:43.420Z,60.4
2022-11-01T05:38:45.248Z,60.1
2022-11-01T05:39:47.398Z,60.6
2022-11-01T05:40:49.195Z,60.7
2022-11-01T05:41:50.315Z,61.1
2022-11-01T05:42:52.190Z,61
2022-11-01T05:43:53.197Z,60.9
2022-11-01T05:44:54.248Z,61
2022-11-01T05:45:55.512Z,61
2022-11-01T05:46:57.212Z,60.8
2022-11-01T05:47:58.172Z,60.9
2022-11-01T05:48:59.132Z,61
2022-11-01T05:50:00.412Z,60.8
2022-11-01T05:51:02.893Z,60.3
2022-11-01T05:52:04.116Z,60.1
2022-11-01T05:53:05.336Z,59.7
2022-11-01T05:54:07.214Z,59.4
2022-11-01T05:55:08.679Z,59.3
2022-11-01T05:56:10.414Z,59.2
2022-11-01T05:57:12.273Z,59.3
2022-11-01T05:58:13.141Z,59.3
2022-11-01T05:59:15.132Z,59.3
2022-11-01T06:00:17.152Z,59.4
2022-11-01T06:01:18.370Z,59.5
2022-11-01T06:02:20.627Z,59.5
2022-11-01T06:03:22.673Z,59.4
2022-11-01T06:04:24.792Z,58.8
2022-11-01T06:05:26.551Z,58.4
2022-11-01T06:06:28.423Z,58.2
2022-11-01T06:07:30.853Z,59
2022-11-01T06:08:32.482Z,59.2
2022-11-01T06:09:34.913Z,59.2
2022-11-01T06:10:36.619Z,59.1
2022-11-01T06:11:41.593Z,58.7
2022-11-01T06:12:39.313Z,58.6
2022-11-01T06:13:41.433Z,58.6
2022-11-01T06:14:43.259Z,58.9
2022-11-01T06:15:44.573Z,58.8
2022-11-01T06:16:46.874Z,58.8
2022-11-01T06:17:48.414Z,58.9
2022-11-01T06:18:50.573Z,58.8
2022-11-01T06:19:53.319Z,58.6
2022-11-01T06:20:55.177Z,58.6
2022-11-01T06:21:56.261Z,58.6
2022-11-01T06:22:57.396Z,58.7
2022-11-01T06:23:59.283Z,59
2022-11-01T06:25:00.181Z,59.1
2022-11-01T06:26:01.185Z,59.1
2022-11-01T06:27:02.433Z,59.2
2022-11-01T06:28:04.499Z,59.1
2022-11-01T06:29:05.419Z,58.8
2022-11-01T06:30:07.591Z,58.6
2022-11-01T06:31:09.514Z,58.6
2022-11-01T06:32:11.314Z,58.6
2022-11-01T06:33:13.492Z,58.6
2022-11-01T06:34:15.470Z,58.6
2022-11-01T06:35:17.434Z,58.6
2022-11-01T06:36:19.572Z,58.6
2022-11-01T06:37:21.334Z,58.6
2022-11-01T06:38:23.347Z,58.7
2022-11-01T06:39:25.472Z,59
2022-11-01T06:40:27.494Z,59.3
2022-11-01T06:41:29.264Z,59.4
2022-11-01T06:42:30.232Z,59.6
2022-11-01T06:43:31.592Z,59.7
2022-11-01T06:44:33.415Z,59.8
2022-11-01T06:45:35.378Z,59.7
2022-11-01T06:46:37.391Z,59.8
2022-11-01T06:47:39.638Z,59.9
2022-11-01T06:48:42.356Z,60
2022-11-01T06:49:44.471Z,60.2
2022-11-01T06:50:46.563Z,60
2022-11-01T06:51:48.593Z,60.3
2022-11-01T06:52:50.892Z,60.4
2022-11-01T06:53:53.073Z,60.3
2022-11-01T06:54:54.572Z,60.2
2022-11-01T06:55:56.255Z,59.8
2022-11-01T06:56:57.261Z,60
2022-11-01T06:57:59.176Z,60.1
2022-11-01T06:59:00.542Z,59.6
2022-11-01T07:00:02.554Z,59.7
2022-11-01T07:01:05.017Z,59.7
2022-11-01T07:02:08.890Z,59.7
2022-11-01T07:03:08.653Z,59.8
2022-11-01T07:05:13.552Z,60
2022-11-01T07:06:15.630Z,60.1
2022-11-01T07:07:17.573Z,60.1
2022-11-01T07:08:19.434Z,59.7
2022-11-01T07:09:21.253Z,60
2022-11-01T07:10:22.232Z,59.8
2022-11-01T07:11:26.282Z,59.9
2022-11-01T07:12:24.380Z,59.7
2022-11-01T07:13:26.738Z,59.6
2022-11-01T07:14:28.448Z,59.6
2022-11-01T07:15:30.512Z,59.6
2022-11-01T07:16:32.412Z,59.5
2022-11-01T07:17:34.626Z,59.6
2022-11-01T07:18:36.832Z,59.6
2022-11-01T07:19:38.576Z,59.7
2022-11-01T07:20:40.440Z,59.6
2022-11-01T07:21:42.677Z,59.5
2022-11-01T07:22:44.225Z,59.2
2022-11-01T07:23:45.312Z,59.1
2022-11-01T07:24:46.272Z,58.9
2022-11-01T07:25:48.893Z,59
2022-11-01T07:26:50.292Z,59
2022-11-01T07:27:51.371Z,59
2022-11-01T07:28:53.675Z,58.9
2022-11-01T07:29:55.392Z,58.7
2022-11-01T07:30:57.696Z,58.9
2022-11-01T07:31:59.775Z,59
2022-11-01T07:33:01.976Z,59.4
2022-11-01T07:34:03.794Z,59.9
2022-11-01T07:35:05.632Z,60.2
2022-11-01T07:36:07.393Z,60.4
2022-11-01T07:37:09.700Z,60.6
2022-11-01T07:38:13.211Z,60.8
2022-11-01T07:39:13.393Z,61.1
2022-11-01T07:40:15.453Z,61.4
2022-11-01T07:41:17.651Z,61.7
2022-11-01T07:42:20.393Z,62.2
2022-11-01T07:43:24.336Z,62.7
2022-11-01T07:44:26.392Z,62.8
2022-11-01T07:45:28.476Z,62.7
2022-11-01T07:46:30.312Z,62.7
2022-11-01T07:47:32.634Z,62.7
2022-11-01T07:48:34.418Z,62.4
2022-11-01T07:49:36.241Z,62.3
2022-11-01T07:50:37.233Z,62.1
2022-11-01T07:51:38.256Z,62.3
2022-11-01T07:52:39.219Z,62.5
2022-11-01T07:53:40.233Z,62.5
2022-11-01T07:54:41.278Z,62.4
2022-11-01T07:55:42.303Z,62.5
2022-11-01T07:56:43.513Z,62.4
2022-11-01T07:57:45.509Z,62.1
2022-11-01T07:58:47.496Z,61.9
2022-11-01T07:59:49.455Z,61.9
2022-11-01T08:00:53.061Z,61.7
2022-11-01T08:01:55.262Z,61.3
2022-11-01T08:02:56.253Z,61.1
2022-11-01T08:03:57.274Z,61.1
2022-11-01T08:04:58.206Z,61
2022-11-01T08:05:59.332Z,60.9
2022-11-01T08:07:00.579Z,60.8
2022-11-01T08:08:02.822Z,60.8
2022-11-01T08:09:04.283Z,60.3
2022-11-01T08:10:05.352Z,59.7
2022-11-01T08:11:07.515Z,60
2022-11-01T08:12:09.455Z,60.2
2022-11-01T08:13:11.290Z,59.9
2022-11-01T08:14:12.704Z,59.6
2022-11-01T08:15:15.174Z,59.4
2022-11-01T08:16:16.233Z,59.2
2022-11-01T08:17:17.400Z,59
2022-11-01T08:18:19.195Z,58.9
2022-11-01T08:19:20.732Z,58.7
2022-11-01T08:20:22.874Z,58.5
2022-11-01T08:21:24.855Z,58.4
2022-11-01T08:22:27.134Z,58.4
2022-11-01T08:23:28.358Z,58.5
2022-11-01T08:24:30.821Z,58.5
2022-11-01T08:25:32.745Z,58.7
2022-11-01T08:26:34.192Z,58.8
2022-11-01T08:27:35.461Z,58.7
2022-11-01T08:28:36.940Z,58.4
2022-11-01T08:29:38.629Z,58
2022-11-01T08:30:40.378Z,58.2
2022-11-01T08:31:42.413Z,58.1
2022-11-01T08:32:44.255Z,57.6
2022-11-01T08:33:45.753Z,57.3
2022-11-01T08:34:47.453Z,56.9
2022-11-01T08:35:50.789Z,56.5
2022-11-01T08:36:51.413Z,55.8
2022-11-01T08:37:53.416Z,55.6
2022-11-01T08:38:56.120Z,55.7
2022-11-01T08:39:57.555Z,55.7
2022-11-01T08:40:59.398Z,55.6
2022-11-01T08:42:01.273Z,55.7
2022-11-01T08:43:03.434Z,55
2022-11-01T08:44:04.533Z,54.8
2022-11-01T08:45:06.637Z,54.8
2022-11-01T08:46:08.733Z,54.2
2022-11-01T08:47:10.395Z,53.9
2022-11-01T08:48:12.514Z,53.8
2022-11-01T08:49:14.313Z,53.8
2022-11-01T08:50:15.814Z,53.6
2022-11-01T08:51:17.375Z,53.2
2022-11-01T08:52:19.253Z,53.1
2022-11-01T08:53:21.574Z,53
2022-11-01T08:54:24.412Z,52.9
2022-11-01T08:55:26.577Z,53
2022-11-01T08:56:28.632Z,53
2022-11-01T08:57:30.841Z,52.7
2022-11-01T08:58:32.633Z,52.5
2022-11-01T08:59:34.352Z,52
2022-11-01T09:00:36.461Z,52.6
2022-11-01T09:01:38.373Z,52.5
2022-11-01T09:02:39.826Z,52.4
2022-11-01T09:03:42.021Z,51.5
2022-11-01T09:04:43.312Z,51
2022-11-01T09:05:44.252Z,50.6
2022-11-01T09:06:45.353Z,49.9
2022-11-01T09:07:46.355Z,49.6
2022-11-01T09:08:47.429Z,49.7
2022-11-01T09:09:49.802Z,48.3
2022-11-01T09:10:51.863Z,47.9
2022-11-01T09:11:53.412Z,47.3
2022-11-01T09:12:55.415Z,46.8
2022-11-01T09:13:57.473Z,46.5
2022-11-01T09:14:59.533Z,46.2
2022-11-01T09:16:02.842Z,46.2
2022-11-01T09:17:03.402Z,45.9
2022-11-01T09:18:05.682Z,46.1
2022-11-01T09:19:07.374Z,45.6
2022-11-01T09:20:09.468Z,45.3
2022-11-01T09:21:11.372Z,46.1
2022-11-01T09:22:13.587Z,46.8
2022-11-01T09:23:15.956Z,47.4
2022-11-01T09:24:18.320Z,47.7
2022-11-01T09:25:19.894Z,47.6
2022-11-01T09:26:22.033Z,48
2022-11-01T09:27:23.473Z,47.7
2022-11-01T09:28:27.817Z,47.3
2022-11-01T09:29:27.882Z,47.6
2022-11-01T09:30:29.673Z,47.4
2022-11-01T09:31:32.281Z,47.1
2022-11-01T09:32:33.358Z,47.4
2022-11-01T09:33:35.572Z,47.5
2022-11-01T09:34:38.704Z,47.7
2022-11-01T09:35:41.138Z,48
2022-11-01T09:36:42.713Z,48.2
2022-11-01T09:37:44.614Z,48.5
2022-11-01T09:38:46.932Z,48.9
2022-11-01T09:39:48.613Z,48.7
2022-11-01T09:40:50.395Z,48.8
2022-11-01T09:41:52.853Z,49.3
2022-11-01T09:42:59.176Z,49.3
2022-11-01T09:43:56.339Z,49.3
2022-11-01T09:44:57.326Z,49.2
2022-11-01T09:45:58.547Z,49.4
2022-11-01T09:47:01.495Z,49.7
2022-11-01T09:48:03.855Z,50.2
2022-11-01T09:49:05.726Z,50
2022-11-01T09:50:07.518Z,49.9
2022-11-01T09:51:09.296Z,50.1
2022-11-01T09:52:10.334Z,49.5
2022-11-01T09:53:11.393Z,50.1
2022-11-01T09:54:13.613Z,50
2022-11-01T09:55:15.601Z,49.8
2022-11-01T09:56:17.397Z,49.2
2022-11-01T09:57:19.552Z,49.1
2022-11-01T09:58:21.753Z,49.2
2022-11-01T09:59:23.575Z,48.8
2022-11-01T10:00:25.337Z,48.4
2022-11-01T10:01:26.645Z,47.8
2022-11-01T10:02:28.856Z,47.2
2022-11-01T10:03:30.382Z,46.6
2022-11-01T10:04:31.374Z,46.4
2022-11-01T10:05:32.292Z,47
2022-11-01T10:06:33.316Z,47.1
2022-11-01T10:07:34.612Z,48.3
2022-11-01T10:08:36.653Z,48
2022-11-01T10:09:38.533Z,47.8
2022-11-01T10:10:40.399Z,48
2022-11-01T10:11:41.333Z,47.9
2022-11-01T10:12:42.341Z,47.4
2022-11-01T10:13:43.313Z,47.6
2022-11-01T10:14:44.252Z,48.5
2022-11-01T10:15:45.353Z,48.8
2022-11-01T10:16:46.676Z,48.7
2022-11-01T10:17:52.047Z,48.6
2022-11-01T10:18:50.414Z,48.2
2022-11-01T10:19:51.413Z,48.2
2022-11-01T10:20:52.674Z,49
2022-11-01T10:21:54.367Z,48.8
2022-11-01T10:22:55.366Z,49.3
2022-11-01T10:23:56.380Z,49.4
2022-11-01T10:24:57.437Z,49.3
2022-11-01T10:25:59.340Z,49.7
2022-11-01T10:27:00.403Z,49.3
2022-11-01T10:28:02.672Z,50
2022-11-01T10:29:04.593Z,50
2022-11-01T10:30:06.813Z,49.7
2022-11-01T10:31:09.052Z,49.6
2022-11-01T10:32:10.672Z,49
2022-11-01T10:33:12.421Z,48.5
2022-11-01T10:34:13.513Z,48.5
2022-11-01T10:35:15.468Z,49
2022-11-01T10:36:17.672Z,48.9
2022-11-01T10:37:19.694Z,48.8
2022-11-01T10:38:28.192Z,48.2
2022-11-01T10:39:53.066Z,47.1
2022-11-01T10:40:25.577Z,47
2022-11-01T10:41:27.513Z,46.7
2022-11-01T10:42:29.692Z,46.2
2022-11-01T10:43:31.601Z,46.4
2022-11-01T10:44:33.874Z,46.7
2022-11-01T10:45:36.215Z,46.9
2022-11-01T10:46:37.454Z,47.4
2022-11-01T10:47:39.319Z,47.7
2022-11-01T10:48:40.368Z,48.1
2022-11-01T10:50:44.371Z,46.6
2022-11-01T10:51:45.385Z,46.2
2022-11-01T10:52:46.398Z,45.9
2022-11-01T10:53:47.450Z,45.7
2022-11-01T10:54:49.980Z,45.7
2022-11-01T10:55:52.435Z,45.2
2022-11-01T10:56:53.461Z,44.7
2022-11-01T10:57:56.495Z,44.1
2022-11-01T10:58:57.822Z,44.4
2022-11-01T10:59:59.766Z,44.8
2022-11-01T11:01:02.559Z,44.6
2022-11-01T11:02:05.459Z,45
2022-11-01T11:03:06.452Z,43.6
2022-11-01T11:04:07.418Z,43.7
2022-11-01T11:05:08.498Z,43.7
2022-11-01T11:06:10.493Z,43.6
2022-11-01T11:07:12.640Z,43.6
2022-11-01T11:08:14.437Z,43.7
2022-11-01T11:09:15.739Z,43.2
2022-11-01T11:10:18.365Z,42.8
2022-11-01T11:11:19.373Z,43
2022-11-01T11:12:20.464Z,42.4
2022-11-01T11:13:22.952Z,41.9
2022-11-01T11:14:25.154Z,41.6
2022-11-01T11:15:28.665Z,42.4
2022-11-01T11:16:28.897Z,43
2022-11-01T11:17:45.522Z,43.9
2022-11-01T11:18:47.787Z,43.7
2022-11-01T11:19:49.576Z,43.6
2022-11-01T11:20:51.557Z,43.5
2022-11-01T11:21:53.680Z,42.8
2022-11-01T11:22:55.596Z,42.2
2022-11-01T11:23:57.441Z,42.8
2022-11-01T11:24:58.429Z,42.8
2022-11-01T11:25:59.343Z,42.8
2022-11-01T11:27:00.374Z,42.5
2022-11-01T11:28:01.866Z,42.2
2022-11-01T11:29:02.753Z,42.3
2022-11-01T11:30:05.283Z,43.5
2022-11-01T11:31:06.623Z,42.9
2022-11-01T11:32:08.592Z,43.2
2022-11-01T11:33:10.914Z,43.6
2022-11-01T11:34:12.473Z,43.4
2022-11-01T11:35:14.830Z,42.9
2022-11-01T11:36:16.417Z,42
2022-11-01T11:37:17.495Z,41.7
2022-11-01T11:38:19.532Z,41.5
2022-11-01T11:39:21.490Z,41
2022-11-01T11:40:23.576Z,40.7
2022-11-01T11:41:25.794Z,41.4
2022-11-01T11:42:27.525Z,41.5
2022-11-01T11:43:29.494Z,41.3
2022-11-01T11:44:31.653Z,40.9
2022-11-01T11:45:34.244Z,41.1
2022-11-01T11:46:35.524Z,41.2
2022-11-01T11:47:37.473Z,40.7
2022-11-01T11:48:39.703Z,40.8
2022-11-01T11:49:42.040Z,40.5
2022-11-01T11:50:43.765Z,40.1
2022-11-01T11:51:45.814Z,40.2
2022-11-01T11:52:47.536Z,40.5
2022-11-01T11:53:49.871Z,40.8
2022-11-01T11:54:51.813Z,41.5
2022-11-01T11:55:53.445Z,41.1
2022-11-01T11:56:54.612Z,40.8
2022-11-01T11:57:56.620Z,40.9
2022-11-01T11:58:58.585Z,41.3
2022-11-01T12:00:00.421Z,42
2022-11-01T12:01:01.574Z,42.3
2022-11-01T12:02:03.833Z,42.7
2022-11-01T12:03:06.053Z,43
2022-11-01T12:04:07.636Z,42.3
2022-11-01T12:05:09.631Z,42.1
2022-11-01T12:06:11.410Z,42.2
2022-11-01T12:07:12.534Z,42
2022-11-01T12:08:15.433Z,41.7
2022-11-01T12:09:22.076Z,41.5
2022-11-01T12:10:19.628Z,41.9
2022-11-01T12:11:21.839Z,41.6
2022-11-01T12:12:24.238Z,41.7
2022-11-01T12:13:25.370Z,42.2
2022-11-01T12:14:26.594Z,41.9
2022-11-01T12:15:28.446Z,42.2
2022-11-01T12:16:29.563Z,41.8
2022-11-01T12:17:31.686Z,41.7
2022-11-01T12:18:33.672Z,41.9
2022-11-01T12:19:35.469Z,41.6
2022-11-01T12:20:37.359Z,41.8
2022-11-01T12:21:38.776Z,41.4
2022-11-01T12:22:40.963Z,41.2
2022-11-01T12:23:42.491Z,41.4
2022-11-01T12:24:44.481Z,42
2022-11-01T12:25:46.788Z,41.6
2022-11-01T12:26:48.517Z,42
2022-11-01T12:27:50.424Z,42.2
2022-11-01T12:28:51.594Z,41.8
2022-11-01T12:29:53.992Z,41.8
2022-11-01T12:30:55.513Z,42
2022-11-01T12:31:57.733Z,41.5
2022-11-01T12:32:59.433Z,41.3
2022-11-01T12:34:00.473Z,41.9
2022-11-01T12:35:01.453Z,41.7
2022-11-01T12:36:03.073Z,41.6
2022-11-01T12:37:04.918Z,41.4
2022-11-01T12:38:06.616Z,40.9
2022-11-01T12:39:07.472Z,40.3
2022-11-01T12:40:08.512Z,39.4
2022-11-01T12:41:10.352Z,39.2
2022-11-01T12:42:11.495Z,39.6
2022-11-01T12:43:12.542Z,39.3
2022-11-01T12:44:14.473Z,39.1
2022-11-01T12:45:15.592Z,38.6
2022-11-01T12:46:18.114Z,38.3
2022-11-01T12:47:19.641Z,38.4
2022-11-01T12:48:21.442Z,38.2
2022-11-01T12:49:22.480Z,38.1
2022-11-01T12:50:23.973Z,38.5
2022-11-01T12:51:25.392Z,38.7
2022-11-01T12:52:26.585Z,38.1
2022-11-01T12:53:28.512Z,37.7
2022-11-01T12:54:29.572Z,37.3
2022-11-01T12:55:31.975Z,37.3
2022-11-01T12:56:33.592Z,37.3
2022-11-01T12:57:35.500Z,37.3
2022-11-01T12:58:36.478Z,37.9
2022-11-01T12:59:37.455Z,38.1
2022-11-01T13:00:38.500Z,38.1
2022-11-01T13:01:39.564Z,38.6
2022-11-01T13:02:41.494Z,38.9
2022-11-01T13:03:42.873Z,38.4
2022-11-01T13:04:44.713Z,38.9
2022-11-01T13:05:46.833Z,39.3
2022-11-01T13:06:49.201Z,39.8
2022-11-01T13:07:50.536Z,40
2022-11-01T13:08:52.620Z,40.1
2022-11-01T13:09:54.494Z,40.5
2022-11-01T13:10:55.933Z,40.1
2022-11-01T13:11:58.032Z,40.4
2022-11-01T13:12:59.567Z,40.1
2022-11-01T13:14:00.513Z,40.3
2022-11-01T13:15:01.454Z,40.4
2022-11-01T13:16:02.615Z,39.9
2022-11-01T13:17:05.393Z,40
2022-11-01T13:18:06.500Z,39.7
2022-11-01T13:19:08.001Z,40
2022-11-01T13:20:09.572Z,40.4
2022-11-01T13:21:11.838Z,40.6
2022-11-01T13:22:13.852Z,40.8
2022-11-01T13:23:16.549Z,41
2022-11-01T13:24:17.673Z,41.1
2022-11-01T13:25:19.473Z,41.2
2022-11-01T13:26:20.454Z,41.6
2022-11-01T13:27:21.593Z,41.9
2022-11-01T13:28:23.713Z,42.3
2022-11-01T13:29:25.572Z,42.1
2022-11-01T13:30:27.952Z,42.2
2022-11-01T13:31:29.932Z,42.2
2022-11-01T13:32:31.433Z,42.5
2022-11-01T13:33:32.561Z,42.8
2022-11-01T13:34:35.073Z,42.6
2022-11-01T13:35:36.433Z,42.7
2022-11-01T13:36:37.853Z,42.8
2022-11-01T13:37:40.632Z,42.5
2022-11-01T13:38:42.647Z,42.6
2022-11-01T13:39:44.574Z,42.9
2022-11-01T13:40:46.514Z,42.1
2022-11-01T13:41:47.813Z,41.9
2022-11-01T13:42:49.552Z,41.9
2022-11-01T13:43:51.616Z,41.8
2022-11-01T13:44:53.651Z,42.1
2022-11-01T13:45:56.253Z,42
2022-11-01T13:46:57.633Z,41.5
2022-11-01T13:47:59.608Z,41.7
2022-11-01T13:49:01.624Z,42.1
2022-11-01T13:50:03.899Z,41.9
2022-11-01T13:51:05.400Z,42
2022-11-01T13:52:06.560Z,42.1
2022-11-01T13:53:08.819Z,42.5